sensor_id;sensor_type;location;lat;lon;timestamp;P1;durP1;ratioP1;P2;durP2;ratioP2
65835;SDS011;52595;51.608;7.216;2023-11-19T00:00:03;6.53;;;4.70;;
65835;SDS011;52595;51.608;7.216;2023-11-19T00:02:29;7.70;;;4.60;;
65835;SDS011;52595;51.608;7.216;2023-11-19T00:04:55;7.43;;;5.15;;
65835;SDS011;52595;51.608;7.216;2023-11-19T00:07:20;11.30;;;5.50;;
65835;SDS011;52595;51.608;7.216;2023-11-19T00:09:45;7.82;;;5.63;;
65835;SDS011;52595;51.608;7.216;2023-11-19T00:12:11;8.02;;;5.55;;
65835;SDS011;52595;51.608;7.216;2023-11-19T00:14:36;10.43;;;5.88;;
65835;SDS011;52595;51.608;7.216;2023-11-19T00:17:01;8.68;;;5.57;;
65835;SDS011;52595;51.608;7.216;2023-11-19T00:19:29;8.63;;;5.80;;
65835;SDS011;52595;51.608;7.216;2023-11-19T00:21:54;7.80;;;5.93;;
65835;SDS011;52595;51.608;7.216;2023-11-19T00:24:19;9.95;;;6.10;;
65835;SDS011;52595;51.608;7.216;2023-11-19T00:26:45;9.77;;;6.20;;
65835;SDS011;52595;51.608;7.216;2023-11-19T00:29:11;8.95;;;6.80;;
65835;SDS011;52595;51.608;7.216;2023-11-19T00:31:38;9.27;;;6.57;;
65835;SDS011;52595;51.608;7.216;2023-11-19T00:34:04;11.70;;;7.28;;
65835;SDS011;52595;51.608;7.216;2023-11-19T00:36:31;9.45;;;5.70;;
65835;SDS011;52595;51.608;7.216;2023-11-19T00:38:56;10.82;;;7.45;;
65835;SDS011;52595;51.608;7.216;2023-11-19T00:41:22;11.32;;;6.72;;
65835;SDS011;52595;51.608;7.216;2023-11-19T00:43:47;10.27;;;7.45;;
65835;SDS011;52595;51.608;7.216;2023-11-19T00:46:14;12.65;;;7.78;;
65835;SDS011;52595;51.608;7.216;2023-11-19T00:48:39;13.15;;;8.45;;
65835;SDS011;52595;51.608;7.216;2023-11-19T00:51:05;12.60;;;9.20;;
65835;SDS011;52595;51.608;7.216;2023-11-19T00:53:31;16.30;;;9.98;;
65835;SDS011;52595;51.608;7.216;2023-11-19T00:55:59;22.30;;;10.80;;
65835;SDS011;52595;51.608;7.216;2023-11-19T00:58:25;13.55;;;7.90;;
65835;SDS011;52595;51.608;7.216;2023-11-19T01:00:51;11.35;;;7.65;;
65835;SDS011;52595;51.608;7.216;2023-11-19T01:03:16;14.98;;;10.65;;
65835;SDS011;52595;51.608;7.216;2023-11-19T01:05:42;18.35;;;11.52;;
65835;SDS011;52595;51.608;7.216;2023-11-19T01:08:08;18.10;;;11.98;;
65835;SDS011;52595;51.608;7.216;2023-11-19T01:10:34;16.65;;;9.43;;
65835;SDS011;52595;51.608;7.216;2023-11-19T01:13:02;18.98;;;11.15;;
65835;SDS011;52595;51.608;7.216;2023-11-19T01:15:30;17.33;;;11.32;;
65835;SDS011;52595;51.608;7.216;2023-11-19T01:17:56;16.77;;;10.63;;
65835;SDS011;52595;51.608;7.216;2023-11-19T01:20:21;20.50;;;12.25;;
65835;SDS011;52595;51.608;7.216;2023-11-19T01:22:47;16.40;;;11.75;;
65835;SDS011;52595;51.608;7.216;2023-11-19T01:25:13;21.15;;;13.95;;
65835;SDS011;52595;51.608;7.216;2023-11-19T01:27:39;19.63;;;11.18;;
65835;SDS011;52595;51.608;7.216;2023-11-19T01:30:04;22.35;;;13.77;;
65835;SDS011;52595;51.608;7.216;2023-11-19T01:32:31;21.52;;;13.38;;
65835;SDS011;52595;51.608;7.216;2023-11-19T01:34:56;21.55;;;14.65;;
65835;SDS011;52595;51.608;7.216;2023-11-19T01:37:22;20.05;;;14.00;;
65835;SDS011;52595;51.608;7.216;2023-11-19T01:39:47;19.70;;;13.30;;
65835;SDS011;52595;51.608;7.216;2023-11-19T01:42:13;18.80;;;13.27;;
65835;SDS011;52595;51.608;7.216;2023-11-19T01:44:38;17.75;;;12.85;;
65835;SDS011;52595;51.608;7.216;2023-11-19T01:47:04;21.08;;;13.07;;
65835;SDS011;52595;51.608;7.216;2023-11-19T01:49:30;17.50;;;12.38;;
65835;SDS011;52595;51.608;7.216;2023-11-19T01:51:57;14.27;;;9.35;;
65835;SDS011;52595;51.608;7.216;2023-11-19T01:54:23;17.77;;;11.13;;
65835;SDS011;52595;51.608;7.216;2023-11-19T01:56:49;16.80;;;10.23;;
65835;SDS011;52595;51.608;7.216;2023-11-19T01:59:14;15.43;;;9.77;;
65835;SDS011;52595;51.608;7.216;2023-11-19T02:01:41;13.60;;;8.77;;
65835;SDS011;52595;51.608;7.216;2023-11-19T02:04:07;13.30;;;8.70;;
65835;SDS011;52595;51.608;7.216;2023-11-19T02:06:33;13.35;;;9.05;;
65835;SDS011;52595;51.608;7.216;2023-11-19T02:08:59;12.43;;;9.07;;
65835;SDS011;52595;51.608;7.216;2023-11-19T02:11:25;15.98;;;10.35;;
65835;SDS011;52595;51.608;7.216;2023-11-19T02:13:54;14.90;;;9.90;;
65835;SDS011;52595;51.608;7.216;2023-11-19T02:16:21;15.85;;;10.10;;
65835;SDS011;52595;51.608;7.216;2023-11-19T02:18:46;17.20;;;11.05;;
65835;SDS011;52595;51.608;7.216;2023-11-19T02:21:12;12.27;;;8.73;;
65835;SDS011;52595;51.608;7.216;2023-11-19T02:23:39;14.13;;;9.88;;
65835;SDS011;52595;51.608;7.216;2023-11-19T02:26:09;11.85;;;6.75;;
65835;SDS011;52595;51.608;7.216;2023-11-19T02:28:39;12.35;;;8.48;;
65835;SDS011;52595;51.608;7.216;2023-11-19T02:31:07;14.10;;;10.60;;
65835;SDS011;52595;51.608;7.216;2023-11-19T02:33:36;11.80;;;8.73;;
65835;SDS011;52595;51.608;7.216;2023-11-19T02:36:03;12.25;;;8.65;;
65835;SDS011;52595;51.608;7.216;2023-11-19T02:38:29;12.23;;;9.07;;
65835;SDS011;52595;51.608;7.216;2023-11-19T02:40:56;12.85;;;7.65;;
65835;SDS011;52595;51.608;7.216;2023-11-19T02:43:22;19.30;;;8.10;;
65835;SDS011;52595;51.608;7.216;2023-11-19T02:45:48;14.52;;;7.68;;
65835;SDS011;52595;51.608;7.216;2023-11-19T02:48:13;13.88;;;7.72;;
65835;SDS011;52595;51.608;7.216;2023-11-19T02:50:41;8.45;;;5.95;;
65835;SDS011;52595;51.608;7.216;2023-11-19T02:53:09;12.70;;;7.88;;
65835;SDS011;52595;51.608;7.216;2023-11-19T02:55:34;12.02;;;7.00;;
65835;SDS011;52595;51.608;7.216;2023-11-19T02:58:03;15.80;;;7.22;;
65835;SDS011;52595;51.608;7.216;2023-11-19T03:00:45;10.88;;;6.82;;
65835;SDS011;52595;51.608;7.216;2023-11-19T03:03:19;12.20;;;7.07;;
65835;SDS011;52595;51.608;7.216;2023-11-19T03:05:51;13.40;;;7.32;;
65835;SDS011;52595;51.608;7.216;2023-11-19T03:08:16;13.80;;;6.80;;
65835;SDS011;52595;51.608;7.216;2023-11-19T03:10:42;14.38;;;7.18;;
65835;SDS011;52595;51.608;7.216;2023-11-19T03:13:11;10.23;;;6.70;;
65835;SDS011;52595;51.608;7.216;2023-11-19T03:15:40;13.93;;;7.03;;
65835;SDS011;52595;51.608;7.216;2023-11-19T03:18:06;10.93;;;6.95;;
65835;SDS011;52595;51.608;7.216;2023-11-19T03:20:31;13.40;;;6.38;;
65835;SDS011;52595;51.608;7.216;2023-11-19T03:22:57;12.00;;;5.03;;
65835;SDS011;52595;51.608;7.216;2023-11-19T03:25:26;11.38;;;4.97;;
65835;SDS011;52595;51.608;7.216;2023-11-19T03:27:58;14.98;;;5.57;;
65835;SDS011;52595;51.608;7.216;2023-11-19T03:30:23;11.50;;;5.80;;
65835;SDS011;52595;51.608;7.216;2023-11-19T03:32:49;14.27;;;5.57;;
65835;SDS011;52595;51.608;7.216;2023-11-19T03:35:15;14.30;;;5.70;;
65835;SDS011;52595;51.608;7.216;2023-11-19T03:37:40;13.88;;;5.88;;
65835;SDS011;52595;51.608;7.216;2023-11-19T03:40:06;19.30;;;6.10;;
65835;SDS011;52595;51.608;7.216;2023-11-19T03:42:31;14.23;;;4.60;;
65835;SDS011;52595;51.608;7.216;2023-11-19T03:44:57;12.93;;;4.60;;
65835;SDS011;52595;51.608;7.216;2023-11-19T03:47:22;14.05;;;4.68;;
65835;SDS011;52595;51.608;7.216;2023-11-19T03:49:48;11.25;;;4.40;;
65835;SDS011;52595;51.608;7.216;2023-11-19T03:52:14;8.20;;;4.18;;
65835;SDS011;52595;51.608;7.216;2023-11-19T03:54:39;12.52;;;4.50;;
65835;SDS011;52595;51.608;7.216;2023-11-19T03:57:05;11.45;;;4.30;;
65835;SDS011;52595;51.608;7.216;2023-11-19T03:59:30;11.27;;;4.05;;
65835;SDS011;52595;51.608;7.216;2023-11-19T04:01:56;9.18;;;3.72;;
65835;SDS011;52595;51.608;7.216;2023-11-19T04:04:21;14.05;;;3.88;;
65835;SDS011;52595;51.608;7.216;2023-11-19T04:06:48;13.38;;;3.90;;
65835;SDS011;52595;51.608;7.216;2023-11-19T04:09:13;10.48;;;3.50;;
65835;SDS011;52595;51.608;7.216;2023-11-19T04:11:39;14.77;;;3.65;;
65835;SDS011;52595;51.608;7.216;2023-11-19T04:14:05;9.75;;;2.95;;
65835;SDS011;52595;51.608;7.216;2023-11-19T04:16:30;13.73;;;3.30;;
65835;SDS011;52595;51.608;7.216;2023-11-19T04:18:56;14.23;;;3.97;;
65835;SDS011;52595;51.608;7.216;2023-11-19T04:21:21;15.38;;;3.38;;
65835;SDS011;52595;51.608;7.216;2023-11-19T04:23:49;18.58;;;3.92;;
65835;SDS011;52595;51.608;7.216;2023-11-19T04:26:14;9.77;;;2.85;;
65835;SDS011;52595;51.608;7.216;2023-11-19T04:28:40;19.27;;;3.38;;
65835;SDS011;52595;51.608;7.216;2023-11-19T04:31:06;17.83;;;3.97;;
65835;SDS011;52595;51.608;7.216;2023-11-19T04:33:31;16.48;;;3.47;;
65835;SDS011;52595;51.608;7.216;2023-11-19T04:35:57;11.70;;;2.63;;
65835;SDS011;52595;51.608;7.216;2023-11-19T04:38:22;16.90;;;3.40;;
65835;SDS011;52595;51.608;7.216;2023-11-19T04:40:47;10.45;;;2.53;;
65835;SDS011;52595;51.608;7.216;2023-11-19T04:43:13;16.00;;;3.22;;
65835;SDS011;52595;51.608;7.216;2023-11-19T04:45:38;12.50;;;2.92;;
65835;SDS011;52595;51.608;7.216;2023-11-19T04:48:05;14.45;;;3.10;;
65835;SDS011;52595;51.608;7.216;2023-11-19T04:50:30;22.65;;;3.88;;
65835;SDS011;52595;51.608;7.216;2023-11-19T04:52:56;17.38;;;3.55;;
65835;SDS011;52595;51.608;7.216;2023-11-19T04:55:21;11.30;;;2.47;;
65835;SDS011;52595;51.608;7.216;2023-11-19T04:57:46;17.95;;;3.03;;
65835;SDS011;52595;51.608;7.216;2023-11-19T05:00:12;12.13;;;2.97;;
65835;SDS011;52595;51.608;7.216;2023-11-19T05:02:38;14.77;;;3.03;;
65835;SDS011;52595;51.608;7.216;2023-11-19T05:05:04;12.52;;;2.95;;
65835;SDS011;52595;51.608;7.216;2023-11-19T05:07:30;17.83;;;3.10;;
65835;SDS011;52595;51.608;7.216;2023-11-19T05:09:55;11.52;;;2.60;;
65835;SDS011;52595;51.608;7.216;2023-11-19T05:12:21;17.52;;;3.05;;
65835;SDS011;52595;51.608;7.216;2023-11-19T05:14:48;15.65;;;3.38;;
65835;SDS011;52595;51.608;7.216;2023-11-19T05:17:15;16.05;;;2.63;;
65835;SDS011;52595;51.608;7.216;2023-11-19T05:19:43;18.35;;;3.13;;
65835;SDS011;52595;51.608;7.216;2023-11-19T05:22:08;17.08;;;2.90;;
65835;SDS011;52595;51.608;7.216;2023-11-19T05:24:33;12.65;;;2.80;;
65835;SDS011;52595;51.608;7.216;2023-11-19T05:26:59;10.55;;;2.75;;
65835;SDS011;52595;51.608;7.216;2023-11-19T05:29:24;15.48;;;3.22;;
65835;SDS011;52595;51.608;7.216;2023-11-19T05:31:50;18.10;;;3.47;;
65835;SDS011;52595;51.608;7.216;2023-11-19T05:34:15;20.67;;;3.30;;
65835;SDS011;52595;51.608;7.216;2023-11-19T05:36:40;19.40;;;3.65;;
65835;SDS011;52595;51.608;7.216;2023-11-19T05:39:06;18.70;;;4.10;;
65835;SDS011;52595;51.608;7.216;2023-11-19T05:41:31;10.38;;;2.65;;
65835;SDS011;52595;51.608;7.216;2023-11-19T05:43:57;15.07;;;3.40;;
65835;SDS011;52595;51.608;7.216;2023-11-19T05:46:22;21.42;;;3.63;;
65835;SDS011;52595;51.608;7.216;2023-11-19T05:48:47;26.55;;;5.15;;
65835;SDS011;52595;51.608;7.216;2023-11-19T05:51:13;21.42;;;4.32;;
65835;SDS011;52595;51.608;7.216;2023-11-19T05:53:40;17.17;;;4.03;;
65835;SDS011;52595;51.608;7.216;2023-11-19T05:56:06;20.23;;;3.95;;
65835;SDS011;52595;51.608;7.216;2023-11-19T05:58:34;16.33;;;3.30;;
65835;SDS011;52595;51.608;7.216;2023-11-19T06:01:01;23.85;;;4.38;;
65835;SDS011;52595;51.608;7.216;2023-11-19T06:03:27;17.70;;;3.42;;
65835;SDS011;52595;51.608;7.216;2023-11-19T06:05:53;16.38;;;3.38;;
65835;SDS011;52595;51.608;7.216;2023-11-19T06:08:19;11.68;;;2.55;;
65835;SDS011;52595;51.608;7.216;2023-11-19T06:10:46;16.27;;;3.42;;
65835;SDS011;52595;51.608;7.216;2023-11-19T06:13:12;18.30;;;3.13;;
65835;SDS011;52595;51.608;7.216;2023-11-19T06:15:40;19.75;;;3.40;;
65835;SDS011;52595;51.608;7.216;2023-11-19T06:18:06;12.23;;;2.78;;
65835;SDS011;52595;51.608;7.216;2023-11-19T06:20:32;18.83;;;4.28;;
65835;SDS011;52595;51.608;7.216;2023-11-19T06:22:58;13.63;;;3.20;;
65835;SDS011;52595;51.608;7.216;2023-11-19T06:25:24;19.52;;;3.55;;
65835;SDS011;52595;51.608;7.216;2023-11-19T06:27:50;14.13;;;3.30;;
65835;SDS011;52595;51.608;7.216;2023-11-19T06:30:16;22.52;;;4.13;;
65835;SDS011;52595;51.608;7.216;2023-11-19T06:32:41;18.63;;;3.85;;
65835;SDS011;52595;51.608;7.216;2023-11-19T06:35:10;17.33;;;3.10;;
65835;SDS011;52595;51.608;7.216;2023-11-19T06:37:35;28.98;;;4.18;;
65835;SDS011;52595;51.608;7.216;2023-11-19T06:40:04;17.35;;;3.42;;
65835;SDS011;52595;51.608;7.216;2023-11-19T06:42:30;13.07;;;2.67;;
65835;SDS011;52595;51.608;7.216;2023-11-19T06:44:56;18.20;;;3.45;;
65835;SDS011;52595;51.608;7.216;2023-11-19T06:47:22;26.80;;;4.05;;
65835;SDS011;52595;51.608;7.216;2023-11-19T06:49:51;15.02;;;3.78;;
65835;SDS011;52595;51.608;7.216;2023-11-19T06:52:17;17.08;;;3.33;;
65835;SDS011;52595;51.608;7.216;2023-11-19T06:54:42;22.52;;;3.92;;
65835;SDS011;52595;51.608;7.216;2023-11-19T06:57:07;20.30;;;3.85;;
65835;SDS011;52595;51.608;7.216;2023-11-19T06:59:34;20.92;;;3.67;;
65835;SDS011;52595;51.608;7.216;2023-11-19T07:01:59;33.58;;;4.15;;
65835;SDS011;52595;51.608;7.216;2023-11-19T07:04:25;16.10;;;4.00;;
65835;SDS011;52595;51.608;7.216;2023-11-19T07:06:50;12.32;;;3.10;;
65835;SDS011;52595;51.608;7.216;2023-11-19T07:09:17;22.88;;;3.97;;
65835;SDS011;52595;51.608;7.216;2023-11-19T07:11:43;17.00;;;3.67;;
65835;SDS011;52595;51.608;7.216;2023-11-19T07:14:10;18.23;;;3.80;;
65835;SDS011;52595;51.608;7.216;2023-11-19T07:16:36;18.55;;;3.63;;
65835;SDS011;52595;51.608;7.216;2023-11-19T07:19:03;13.70;;;2.95;;
65835;SDS011;52595;51.608;7.216;2023-11-19T07:21:30;17.88;;;3.90;;
65835;SDS011;52595;51.608;7.216;2023-11-19T07:23:55;23.60;;;4.00;;
65835;SDS011;52595;51.608;7.216;2023-11-19T07:26:21;22.58;;;3.78;;
65835;SDS011;52595;51.608;7.216;2023-11-19T07:28:47;21.48;;;3.85;;
65835;SDS011;52595;51.608;7.216;2023-11-19T07:31:13;19.10;;;3.47;;
65835;SDS011;52595;51.608;7.216;2023-11-19T07:33:42;20.23;;;4.88;;
65835;SDS011;52595;51.608;7.216;2023-11-19T07:36:10;18.23;;;3.70;;
65835;SDS011;52595;51.608;7.216;2023-11-19T07:38:37;19.85;;;4.43;;
65835;SDS011;52595;51.608;7.216;2023-11-19T07:41:03;17.95;;;3.83;;
65835;SDS011;52595;51.608;7.216;2023-11-19T07:43:30;21.00;;;6.63;;
65835;SDS011;52595;51.608;7.216;2023-11-19T07:45:55;17.85;;;4.47;;
65835;SDS011;52595;51.608;7.216;2023-11-19T07:48:21;19.55;;;4.25;;
65835;SDS011;52595;51.608;7.216;2023-11-19T07:50:48;15.90;;;3.17;;
65835;SDS011;52595;51.608;7.216;2023-11-19T07:53:17;16.85;;;3.92;;
65835;SDS011;52595;51.608;7.216;2023-11-19T07:55:43;14.10;;;2.75;;
65835;SDS011;52595;51.608;7.216;2023-11-19T07:58:09;19.98;;;3.55;;
65835;SDS011;52595;51.608;7.216;2023-11-19T08:00:35;25.67;;;3.80;;
65835;SDS011;52595;51.608;7.216;2023-11-19T08:03:02;22.08;;;3.72;;
65835;SDS011;52595;51.608;7.216;2023-11-19T08:05:27;22.10;;;4.10;;
65835;SDS011;52595;51.608;7.216;2023-11-19T08:07:53;20.88;;;3.42;;
65835;SDS011;52595;51.608;7.216;2023-11-19T08:10:19;11.98;;;2.92;;
65835;SDS011;52595;51.608;7.216;2023-11-19T08:12:44;14.60;;;3.22;;
65835;SDS011;52595;51.608;7.216;2023-11-19T08:15:10;21.52;;;3.50;;
65835;SDS011;52595;51.608;7.216;2023-11-19T08:17:36;24.55;;;3.97;;
65835;SDS011;52595;51.608;7.216;2023-11-19T08:20:01;15.13;;;2.47;;
65835;SDS011;52595;51.608;7.216;2023-11-19T08:22:28;18.33;;;3.95;;
65835;SDS011;52595;51.608;7.216;2023-11-19T08:24:53;18.83;;;3.42;;
65835;SDS011;52595;51.608;7.216;2023-11-19T08:27:18;15.75;;;2.88;;
65835;SDS011;52595;51.608;7.216;2023-11-19T08:29:44;13.75;;;3.03;;
65835;SDS011;52595;51.608;7.216;2023-11-19T08:32:09;17.00;;;3.78;;
65835;SDS011;52595;51.608;7.216;2023-11-19T08:34:36;27.13;;;4.45;;
65835;SDS011;52595;51.608;7.216;2023-11-19T08:37:01;22.70;;;3.15;;
65835;SDS011;52595;51.608;7.216;2023-11-19T08:39:26;13.20;;;2.85;;
65835;SDS011;52595;51.608;7.216;2023-11-19T08:41:52;16.08;;;2.75;;
65835;SDS011;52595;51.608;7.216;2023-11-19T08:44:17;16.85;;;3.00;;
65835;SDS011;52595;51.608;7.216;2023-11-19T08:46:50;19.73;;;3.35;;
65835;SDS011;52595;51.608;7.216;2023-11-19T08:49:16;21.80;;;3.50;;
65835;SDS011;52595;51.608;7.216;2023-11-19T08:51:42;19.83;;;3.20;;
65835;SDS011;52595;51.608;7.216;2023-11-19T08:54:07;19.75;;;3.72;;
65835;SDS011;52595;51.608;7.216;2023-11-19T08:56:33;20.90;;;3.10;;
65835;SDS011;52595;51.608;7.216;2023-11-19T08:59:00;20.23;;;4.00;;
65835;SDS011;52595;51.608;7.216;2023-11-19T09:01:26;17.02;;;4.82;;
65835;SDS011;52595;51.608;7.216;2023-11-19T09:03:51;25.20;;;4.63;;
65835;SDS011;52595;51.608;7.216;2023-11-19T09:06:17;24.90;;;5.47;;
65835;SDS011;52595;51.608;7.216;2023-11-19T09:08:42;14.50;;;3.05;;
65835;SDS011;52595;51.608;7.216;2023-11-19T09:11:08;22.40;;;4.72;;
65835;SDS011;52595;51.608;7.216;2023-11-19T09:13:34;25.55;;;4.43;;
65835;SDS011;52595;51.608;7.216;2023-11-19T09:16:00;19.23;;;4.00;;
65835;SDS011;52595;51.608;7.216;2023-11-19T09:18:28;26.23;;;3.92;;
65835;SDS011;52595;51.608;7.216;2023-11-19T09:21:00;24.27;;;4.72;;
65835;SDS011;52595;51.608;7.216;2023-11-19T09:23:25;18.33;;;4.78;;
65835;SDS011;52595;51.608;7.216;2023-11-19T09:25:52;17.83;;;3.67;;
65835;SDS011;52595;51.608;7.216;2023-11-19T09:28:18;19.02;;;3.05;;
65835;SDS011;52595;51.608;7.216;2023-11-19T09:30:44;13.77;;;3.67;;
65835;SDS011;52595;51.608;7.216;2023-11-19T09:33:09;18.45;;;3.40;;
65835;SDS011;52595;51.608;7.216;2023-11-19T09:35:35;21.40;;;4.50;;
65835;SDS011;52595;51.608;7.216;2023-11-19T09:38:00;25.13;;;4.40;;
65835;SDS011;52595;51.608;7.216;2023-11-19T09:40:26;14.85;;;3.28;;
65835;SDS011;52595;51.608;7.216;2023-11-19T09:42:51;22.17;;;3.97;;
65835;SDS011;52595;51.608;7.216;2023-11-19T09:45:17;13.07;;;3.08;;
65835;SDS011;52595;51.608;7.216;2023-11-19T09:47:45;18.90;;;3.47;;
65835;SDS011;52595;51.608;7.216;2023-11-19T09:50:17;17.20;;;3.05;;
65835;SDS011;52595;51.608;7.216;2023-11-19T09:52:44;18.67;;;3.72;;
65835;SDS011;52595;51.608;7.216;2023-11-19T09:55:11;18.10;;;3.13;;
65835;SDS011;52595;51.608;7.216;2023-11-19T09:57:38;23.63;;;4.10;;
65835;SDS011;52595;51.608;7.216;2023-11-19T10:00:05;14.45;;;3.38;;
65835;SDS011;52595;51.608;7.216;2023-11-19T10:02:33;16.05;;;3.40;;
65835;SDS011;52595;51.608;7.216;2023-11-19T10:05:04;21.40;;;3.92;;
65835;SDS011;52595;51.608;7.216;2023-11-19T10:07:31;13.95;;;3.47;;
65835;SDS011;52595;51.608;7.216;2023-11-19T10:10:00;27.30;;;4.25;;
65835;SDS011;52595;51.608;7.216;2023-11-19T10:12:27;23.50;;;4.65;;
65835;SDS011;52595;51.608;7.216;2023-11-19T10:14:54;18.98;;;3.75;;
65835;SDS011;52595;51.608;7.216;2023-11-19T10:17:22;23.95;;;4.40;;
65835;SDS011;52595;51.608;7.216;2023-11-19T10:19:54;21.17;;;4.13;;
65835;SDS011;52595;51.608;7.216;2023-11-19T10:22:19;29.33;;;4.85;;
65835;SDS011;52595;51.608;7.216;2023-11-19T10:24:45;18.25;;;3.85;;
65835;SDS011;52595;51.608;7.216;2023-11-19T10:27:10;15.30;;;3.05;;
65835;SDS011;52595;51.608;7.216;2023-11-19T10:29:36;19.60;;;3.97;;
65835;SDS011;52595;51.608;7.216;2023-11-19T10:32:03;25.27;;;4.07;;
65835;SDS011;52595;51.608;7.216;2023-11-19T10:34:28;18.27;;;2.80;;
65835;SDS011;52595;51.608;7.216;2023-11-19T10:36:55;13.18;;;2.90;;
65835;SDS011;52595;51.608;7.216;2023-11-19T10:39:20;30.48;;;4.40;;
65835;SDS011;52595;51.608;7.216;2023-11-19T10:41:46;19.95;;;4.32;;
65835;SDS011;52595;51.608;7.216;2023-11-19T10:44:12;18.60;;;3.80;;
65835;SDS011;52595;51.608;7.216;2023-11-19T10:46:38;22.27;;;3.55;;
65835;SDS011;52595;51.608;7.216;2023-11-19T10:49:05;24.83;;;4.32;;
65835;SDS011;52595;51.608;7.216;2023-11-19T10:51:31;24.02;;;3.90;;
65835;SDS011;52595;51.608;7.216;2023-11-19T10:53:58;18.15;;;3.65;;
65835;SDS011;52595;51.608;7.216;2023-11-19T10:56:32;18.13;;;3.80;;
65835;SDS011;52595;51.608;7.216;2023-11-19T10:58:59;20.15;;;3.47;;
65835;SDS011;52595;51.608;7.216;2023-11-19T11:01:26;21.27;;;3.40;;
65835;SDS011;52595;51.608;7.216;2023-11-19T11:03:58;12.45;;;2.53;;
65835;SDS011;52595;51.608;7.216;2023-11-19T11:06:25;16.88;;;3.47;;
65835;SDS011;52595;51.608;7.216;2023-11-19T11:08:52;22.38;;;4.10;;
65835;SDS011;52595;51.608;7.216;2023-11-19T11:11:19;12.02;;;3.08;;
65835;SDS011;52595;51.608;7.216;2023-11-19T11:13:46;19.15;;;3.55;;
65835;SDS011;52595;51.608;7.216;2023-11-19T11:16:14;18.33;;;3.38;;
65835;SDS011;52595;51.608;7.216;2023-11-19T11:18:43;26.02;;;3.53;;
65835;SDS011;52595;51.608;7.216;2023-11-19T11:21:10;14.93;;;3.20;;
65835;SDS011;52595;51.608;7.216;2023-11-19T11:34:42;16.67;;;2.90;;
65835;SDS011;52595;51.608;7.216;2023-11-19T11:37:17;21.55;;;3.25;;
65835;SDS011;52595;51.608;7.216;2023-11-19T11:39:46;18.70;;;3.30;;
65835;SDS011;52595;51.608;7.216;2023-11-19T11:45:03;20.10;;;3.53;;
65835;SDS011;52595;51.608;7.216;2023-11-19T11:50:08;11.50;;;2.60;;
65835;SDS011;52595;51.608;7.216;2023-11-19T11:52:34;26.02;;;3.38;;
65835;SDS011;52595;51.608;7.216;2023-11-19T11:55:23;13.85;;;2.85;;
65835;SDS011;52595;51.608;7.216;2023-11-19T11:57:52;22.13;;;3.60;;
65835;SDS011;52595;51.608;7.216;2023-11-19T12:00:22;13.95;;;3.17;;
65835;SDS011;52595;51.608;7.216;2023-11-19T12:02:52;13.65;;;3.67;;
65835;SDS011;52595;51.608;7.216;2023-11-19T12:05:20;21.05;;;3.70;;
65835;SDS011;52595;51.608;7.216;2023-11-19T12:08:02;19.95;;;3.15;;
65835;SDS011;52595;51.608;7.216;2023-11-19T12:10:29;16.65;;;3.53;;
65835;SDS011;52595;51.608;7.216;2023-11-19T12:12:59;19.13;;;3.78;;
65835;SDS011;52595;51.608;7.216;2023-11-19T12:15:25;19.58;;;3.10;;
65835;SDS011;52595;51.608;7.216;2023-11-19T12:17:52;21.75;;;3.33;;
65835;SDS011;52595;51.608;7.216;2023-11-19T12:20:19;14.88;;;3.15;;
65835;SDS011;52595;51.608;7.216;2023-11-19T12:22:49;17.38;;;3.58;;
65835;SDS011;52595;51.608;7.216;2023-11-19T12:25:15;16.52;;;3.78;;
65835;SDS011;52595;51.608;7.216;2023-11-19T12:27:43;18.73;;;2.92;;
65835;SDS011;52595;51.608;7.216;2023-11-19T12:30:09;18.30;;;3.22;;
65835;SDS011;52595;51.608;7.216;2023-11-19T12:32:41;14.93;;;2.80;;
65835;SDS011;52595;51.608;7.216;2023-11-19T12:35:08;19.25;;;2.80;;
65835;SDS011;52595;51.608;7.216;2023-11-19T12:40:10;17.30;;;3.10;;
65835;SDS011;52595;51.608;7.216;2023-11-19T12:42:40;17.35;;;3.53;;
65835;SDS011;52595;51.608;7.216;2023-11-19T12:45:06;14.50;;;2.47;;
65835;SDS011;52595;51.608;7.216;2023-11-19T12:47:33;14.18;;;3.00;;
65835;SDS011;52595;51.608;7.216;2023-11-19T12:49:58;15.93;;;3.38;;
65835;SDS011;52595;51.608;7.216;2023-11-19T12:52:24;14.68;;;3.13;;
65835;SDS011;52595;51.608;7.216;2023-11-19T12:54:50;12.10;;;2.50;;
65835;SDS011;52595;51.608;7.216;2023-11-19T12:57:16;14.05;;;3.58;;
65835;SDS011;52595;51.608;7.216;2023-11-19T12:59:42;13.90;;;3.67;;
65835;SDS011;52595;51.608;7.216;2023-11-19T13:02:08;12.07;;;2.90;;
65835;SDS011;52595;51.608;7.216;2023-11-19T13:04:33;15.68;;;2.78;;
65835;SDS011;52595;51.608;7.216;2023-11-19T13:06:59;18.00;;;2.97;;
65835;SDS011;52595;51.608;7.216;2023-11-19T13:09:26;9.10;;;2.22;;
65835;SDS011;52595;51.608;7.216;2023-11-19T13:11:52;16.15;;;3.28;;
65835;SDS011;52595;51.608;7.216;2023-11-19T13:14:19;17.73;;;3.15;;
65835;SDS011;52595;51.608;7.216;2023-11-19T13:16:45;16.05;;;3.33;;
65835;SDS011;52595;51.608;7.216;2023-11-19T13:19:12;18.35;;;3.15;;
65835;SDS011;52595;51.608;7.216;2023-11-19T13:21:38;20.40;;;3.33;;
65835;SDS011;52595;51.608;7.216;2023-11-19T13:24:05;21.98;;;3.85;;
65835;SDS011;52595;51.608;7.216;2023-11-19T13:26:31;20.88;;;3.60;;
65835;SDS011;52595;51.608;7.216;2023-11-19T13:28:56;17.13;;;3.70;;
65835;SDS011;52595;51.608;7.216;2023-11-19T13:31:22;17.70;;;3.28;;
65835;SDS011;52595;51.608;7.216;2023-11-19T13:33:47;17.80;;;3.90;;
65835;SDS011;52595;51.608;7.216;2023-11-19T13:36:13;15.38;;;3.60;;
65835;SDS011;52595;51.608;7.216;2023-11-19T13:38:38;14.82;;;3.88;;
65835;SDS011;52595;51.608;7.216;2023-11-19T13:41:06;8.35;;;2.55;;
65835;SDS011;52595;51.608;7.216;2023-11-19T13:43:31;10.80;;;2.75;;
65835;SDS011;52595;51.608;7.216;2023-11-19T13:45:57;15.43;;;3.28;;
65835;SDS011;52595;51.608;7.216;2023-11-19T13:48:23;13.80;;;2.95;;
65835;SDS011;52595;51.608;7.216;2023-11-19T13:50:49;8.88;;;2.35;;
65835;SDS011;52595;51.608;7.216;2023-11-19T13:53:14;15.75;;;3.05;;
65835;SDS011;52595;51.608;7.216;2023-11-19T13:55:41;8.35;;;1.92;;
65835;SDS011;52595;51.608;7.216;2023-11-19T13:58:07;14.50;;;2.90;;
65835;SDS011;52595;51.608;7.216;2023-11-19T14:00:32;11.77;;;1.90;;
65835;SDS011;52595;51.608;7.216;2023-11-19T14:02:58;10.48;;;2.58;;
65835;SDS011;52595;51.608;7.216;2023-11-19T14:05:23;13.48;;;3.08;;
65835;SDS011;52595;51.608;7.216;2023-11-19T14:07:48;14.20;;;3.15;;
65835;SDS011;52595;51.608;7.216;2023-11-19T14:10:15;13.07;;;2.88;;
65835;SDS011;52595;51.608;7.216;2023-11-19T14:12:41;15.20;;;3.47;;
65835;SDS011;52595;51.608;7.216;2023-11-19T14:15:07;12.52;;;3.08;;
65835;SDS011;52595;51.608;7.216;2023-11-19T14:17:42;19.83;;;3.30;;
65835;SDS011;52595;51.608;7.216;2023-11-19T14:20:07;11.90;;;3.00;;
65835;SDS011;52595;51.608;7.216;2023-11-19T14:22:38;19.02;;;4.00;;
65835;SDS011;52595;51.608;7.216;2023-11-19T14:25:12;15.30;;;3.72;;
65835;SDS011;52595;51.608;7.216;2023-11-19T14:27:41;15.75;;;3.42;;
65835;SDS011;52595;51.608;7.216;2023-11-19T14:30:08;14.75;;;2.72;;
65835;SDS011;52595;51.608;7.216;2023-11-19T14:32:38;16.90;;;3.15;;
65835;SDS011;52595;51.608;7.216;2023-11-19T14:35:05;15.73;;;3.75;;
65835;SDS011;52595;51.608;7.216;2023-11-19T14:37:31;19.67;;;4.13;;
65835;SDS011;52595;51.608;7.216;2023-11-19T14:39:57;14.55;;;2.95;;
65835;SDS011;52595;51.608;7.216;2023-11-19T14:42:24;16.85;;;3.05;;
65835;SDS011;52595;51.608;7.216;2023-11-19T14:44:50;19.75;;;3.67;;
65835;SDS011;52595;51.608;7.216;2023-11-19T14:47:17;14.75;;;3.15;;